sensor_id;sensor_type;location;lat;lon;timestamp;P1;durP1;ratioP1;P2;durP2;ratioP2
59569;SDS011;45393;44.646;10.900;2022-09-17T00:01:42;8.87;;;2.80;;
59569;SDS011;45393;44.646;10.900;2022-09-17T00:04:08;16.83;;;2.73;;
59569;SDS011;45393;44.646;10.900;2022-09-17T00:06:35;12.27;;;2.97;;
59569;SDS011;45393;44.646;10.900;2022-09-17T00:09:03;12.63;;;2.83;;
59569;SDS011;45393;44.646;10.900;2022-09-17T00:11:30;10.80;;;2.40;;
59569;SDS011;45393;44.646;10.900;2022-09-17T00:13:57;13.67;;;2.73;;
59569;SDS011;45393;44.646;10.900;2022-09-17T00:16:28;11.83;;;3.33;;
59569;SDS011;45393;44.646;10.900;2022-09-17T00:18:55;10.27;;;2.40;;
59569;SDS011;45393;44.646;10.900;2022-09-17T00:21:22;17.50;;;3.90;;
59569;SDS011;45393;44.646;10.900;2022-09-17T00:23:52;12.63;;;2.87;;
59569;SDS011;45393;44.646;10.900;2022-09-17T00:26:18;10.17;;;2.70;;
59569;SDS011;45393;44.646;10.900;2022-09-17T00:28:47;15.30;;;3.10;;
59569;SDS011;45393;44.646;10.900;2022-09-17T00:31:14;12.13;;;3.27;;
59569;SDS011;45393;44.646;10.900;2022-09-17T00:33:40;10.30;;;2.60;;
59569;SDS011;45393;44.646;10.900;2022-09-17T00:36:06;12.60;;;3.03;;
59569;SDS011;45393;44.646;10.900;2022-09-17T00:38:32;15.43;;;3.23;;
59569;SDS011;45393;44.646;10.900;2022-09-17T00:40:59;13.53;;;2.60;;
59569;SDS011;45393;44.646;10.900;2022-09-17T00:46:05;17.03;;;3.10;;
59569;SDS011;45393;44.646;10.900;2022-09-17T00:48:34;11.23;;;2.63;;
59569;SDS011;45393;44.646;10.900;2022-09-17T00:51:00;14.17;;;2.67;;
59569;SDS011;45393;44.646;10.900;2022-09-17T00:53:27;12.93;;;2.83;;
59569;SDS011;45393;44.646;10.900;2022-09-17T00:55:56;11.53;;;2.17;;
59569;SDS011;45393;44.646;10.900;2022-09-17T00:58:24;8.77;;;2.03;;
59569;SDS011;45393;44.646;10.900;2022-09-17T01:00:51;12.20;;;2.57;;
59569;SDS011;45393;44.646;10.900;2022-09-17T01:03:17;8.13;;;2.00;;
59569;SDS011;45393;44.646;10.900;2022-09-17T01:05:44;4.93;;;1.70;;
59569;SDS011;45393;44.646;10.900;2022-09-17T01:08:26;8.20;;;1.83;;
59569;SDS011;45393;44.646;10.900;2022-09-17T01:11:01;8.43;;;1.70;;
59569;SDS011;45393;44.646;10.900;2022-09-17T01:18:58;6.70;;;1.67;;
59569;SDS011;45393;44.646;10.900;2022-09-17T01:23:59;7.20;;;1.30;;
59569;SDS011;45393;44.646;10.900;2022-09-17T01:39:33;5.00;;;1.30;;
59569;SDS011;45393;44.646;10.900;2022-09-17T01:49:29;6.93;;;1.90;;
59569;SDS011;45393;44.646;10.900;2022-09-17T01:51:56;6.60;;;1.70;;
59569;SDS011;45393;44.646;10.900;2022-09-17T01:59:58;4.50;;;1.40;;
59569;SDS011;45393;44.646;10.900;2022-09-17T02:02:26;8.37;;;1.80;;
59569;SDS011;45393;44.646;10.900;2022-09-17T02:05:38;9.10;;;1.80;;
59569;SDS011;45393;44.646;10.900;2022-09-17T02:07:45;10.00;;;1.40;;
59569;SDS011;45393;44.646;10.900;2022-09-17T02:10:15;4.13;;;1.40;;
59569;SDS011;45393;44.646;10.900;2022-09-17T02:12:49;5.73;;;1.40;;
59569;SDS011;45393;44.646;10.900;2022-09-17T02:15:21;9.03;;;1.57;;
59569;SDS011;45393;44.646;10.900;2022-09-17T02:20:47;7.07;;;1.43;;
59569;SDS011;45393;44.646;10.900;2022-09-17T02:23:17;9.03;;;1.93;;
59569;SDS011;45393;44.646;10.900;2022-09-17T02:25:47;12.50;;;1.93;;
59569;SDS011;45393;44.646;10.900;2022-09-17T02:28:17;8.63;;;1.77;;
59569;SDS011;45393;44.646;10.900;2022-09-17T02:30:45;10.00;;;2.00;;
59569;SDS011;45393;44.646;10.900;2022-09-17T02:33:12;8.30;;;1.50;;
59569;SDS011;45393;44.646;10.900;2022-09-17T02:35:39;8.13;;;1.70;;
59569;SDS011;45393;44.646;10.900;2022-09-17T02:38:07;6.90;;;1.47;;
59569;SDS011;45393;44.646;10.900;2022-09-17T02:40:34;8.93;;;1.60;;
59569;SDS011;45393;44.646;10.900;2022-09-17T03:04:02;4.23;;;1.20;;
59569;SDS011;45393;44.646;10.900;2022-09-17T03:06:29;3.70;;;1.23;;
59569;SDS011;45393;44.646;10.900;2022-09-17T03:08:56;3.07;;;1.13;;
59569;SDS011;45393;44.646;10.900;2022-09-17T03:11:22;5.07;;;1.10;;
59569;SDS011;45393;44.646;10.900;2022-09-17T03:13:49;3.73;;;1.00;;
59569;SDS011;45393;44.646;10.900;2022-09-17T03:16:15;7.50;;;1.60;;
59569;SDS011;45393;44.646;10.900;2022-09-17T03:18:42;6.53;;;1.40;;
59569;SDS011;45393;44.646;10.900;2022-09-17T03:21:08;5.37;;;1.30;;
59569;SDS011;45393;44.646;10.900;2022-09-17T03:23:35;4.73;;;1.40;;
59569;SDS011;45393;44.646;10.900;2022-09-17T03:26:02;4.97;;;1.00;;
59569;SDS011;45393;44.646;10.900;2022-09-17T03:28:28;3.53;;;1.00;;
59569;SDS011;45393;44.646;10.900;2022-09-17T03:30:54;2.93;;;1.17;;
59569;SDS011;45393;44.646;10.900;2022-09-17T03:33:20;6.37;;;1.20;;
59569;SDS011;45393;44.646;10.900;2022-09-17T03:35:46;4.03;;;1.30;;
59569;SDS011;45393;44.646;10.900;2022-09-17T03:38:12;3.47;;;1.30;;
59569;SDS011;45393;44.646;10.900;2022-09-17T03:40:39;4.40;;;1.20;;
59569;SDS011;45393;44.646;10.900;2022-09-17T03:43:05;3.47;;;1.00;;
59569;SDS011;45393;44.646;10.900;2022-09-17T03:45:31;3.63;;;1.17;;
59569;SDS011;45393;44.646;10.900;2022-09-17T03:47:57;5.00;;;1.10;;
59569;SDS011;45393;44.646;10.900;2022-09-17T03:50:23;3.80;;;1.00;;
59569;SDS011;45393;44.646;10.900;2022-09-17T03:52:49;7.03;;;1.60;;
59569;SDS011;45393;44.646;10.900;2022-09-17T03:55:15;3.33;;;1.13;;
59569;SDS011;45393;44.646;10.900;2022-09-17T03:57:42;6.77;;;1.30;;
59569;SDS011;45393;44.646;10.900;2022-09-17T04:00:08;4.40;;;0.90;;
59569;SDS011;45393;44.646;10.900;2022-09-17T04:02:36;5.80;;;1.20;;
59569;SDS011;45393;44.646;10.900;2022-09-17T04:05:02;8.80;;;1.57;;
59569;SDS011;45393;44.646;10.900;2022-09-17T04:07:28;4.13;;;1.17;;
59569;SDS011;45393;44.646;10.900;2022-09-17T04:09:54;3.97;;;1.10;;
59569;SDS011;45393;44.646;10.900;2022-09-17T04:12:20;6.30;;;1.43;;
59569;SDS011;45393;44.646;10.900;2022-09-17T04:14:47;9.33;;;1.60;;
59569;SDS011;45393;44.646;10.900;2022-09-17T04:17:13;5.73;;;1.30;;
59569;SDS011;45393;44.646;10.900;2022-09-17T04:19:42;3.67;;;1.20;;
59569;SDS011;45393;44.646;10.900;2022-09-17T04:22:08;6.23;;;1.20;;
59569;SDS011;45393;44.646;10.900;2022-09-17T04:24:34;4.37;;;1.20;;
59569;SDS011;45393;44.646;10.900;2022-09-17T04:27:00;7.67;;;1.40;;
59569;SDS011;45393;44.646;10.900;2022-09-17T04:29:26;5.20;;;1.40;;
59569;SDS011;45393;44.646;10.900;2022-09-17T04:31:52;9.33;;;2.00;;
59569;SDS011;45393;44.646;10.900;2022-09-17T04:34:19;6.40;;;1.73;;
59569;SDS011;45393;44.646;10.900;2022-09-17T04:36:45;8.83;;;2.00;;
59569;SDS011;45393;44.646;10.900;2022-09-17T04:39:11;6.80;;;1.77;;
59569;SDS011;45393;44.646;10.900;2022-09-17T04:41:37;9.93;;;1.93;;
59569;SDS011;45393;44.646;10.900;2022-09-17T04:44:03;8.97;;;1.90;;
59569;SDS011;45393;44.646;10.900;2022-09-17T04:46:29;10.57;;;2.17;;
59569;SDS011;45393;44.646;10.900;2022-09-17T04:48:55;9.40;;;2.00;;
59569;SDS011;45393;44.646;10.900;2022-09-17T04:51:21;10.47;;;2.00;;
59569;SDS011;45393;44.646;10.900;2022-09-17T04:53:47;8.70;;;1.90;;
59569;SDS011;45393;44.646;10.900;2022-09-17T04:56:13;9.63;;;1.73;;
59569;SDS011;45393;44.646;10.900;2022-09-17T04:58:40;6.23;;;1.70;;
59569;SDS011;45393;44.646;10.900;2022-09-17T05:01:06;9.00;;;1.97;;
59569;SDS011;45393;44.646;10.900;2022-09-17T05:03:32;7.10;;;1.87;;
59569;SDS011;45393;44.646;10.900;2022-09-17T05:05:58;6.40;;;1.77;;
59569;SDS011;45393;44.646;10.900;2022-09-17T05:08:24;6.17;;;1.50;;
59569;SDS011;45393;44.646;10.900;2022-09-17T05:10:50;5.33;;;1.57;;
59569;SDS011;45393;44.646;10.900;2022-09-17T05:13:17;6.03;;;1.50;;
59569;SDS011;45393;44.646;10.900;2022-09-17T05:15:43;1.97;;;1.23;;
59569;SDS011;45393;44.646;10.900;2022-09-17T05:18:09;3.30;;;1.50;;
59569;SDS011;45393;44.646;10.900;2022-09-17T05:20:35;3.77;;;1.40;;
59569;SDS011;45393;44.646;10.900;2022-09-17T05:23:01;3.57;;;1.60;;
59569;SDS011;45393;44.646;10.900;2022-09-17T05:25:27;2.30;;;1.60;;
59569;SDS011;45393;44.646;10.900;2022-09-17T05:27:55;4.23;;;1.50;;
59569;SDS011;45393;44.646;10.900;2022-09-17T05:30:21;3.37;;;1.43;;
59569;SDS011;45393;44.646;10.900;2022-09-17T05:32:47;3.80;;;1.50;;
59569;SDS011;45393;44.646;10.900;2022-09-17T05:35:13;2.10;;;1.20;;
59569;SDS011;45393;44.646;10.900;2022-09-17T05:37:39;3.40;;;1.47;;
59569;SDS011;45393;44.646;10.900;2022-09-17T05:40:06;3.57;;;1.10;;
59569;SDS011;45393;44.646;10.900;2022-09-17T05:42:32;3.53;;;1.20;;
59569;SDS011;45393;44.646;10.900;2022-09-17T05:44:59;7.73;;;1.60;;
59569;SDS011;45393;44.646;10.900;2022-09-17T05:47:25;9.00;;;1.90;;
59569;SDS011;45393;44.646;10.900;2022-09-17T05:49:51;7.10;;;1.50;;
59569;SDS011;45393;44.646;10.900;2022-09-17T05:52:17;3.73;;;1.50;;
59569;SDS011;45393;44.646;10.900;2022-09-17T05:54:43;6.27;;;1.60;;
59569;SDS011;45393;44.646;10.900;2022-09-17T05:57:10;4.97;;;1.60;;
59569;SDS011;45393;44.646;10.900;2022-09-17T05:59:37;3.30;;;1.43;;
59569;SDS011;45393;44.646;10.900;2022-09-17T06:02:03;5.37;;;1.80;;
59569;SDS011;45393;44.646;10.900;2022-09-17T06:04:29;8.93;;;2.50;;
59569;SDS011;45393;44.646;10.900;2022-09-17T06:06:55;3.07;;;1.60;;
59569;SDS011;45393;44.646;10.900;2022-09-17T06:09:21;6.03;;;1.80;;
59569;SDS011;45393;44.646;10.900;2022-09-17T06:11:48;4.73;;;1.50;;
59569;SDS011;45393;44.646;10.900;2022-09-17T06:14:14;3.97;;;1.30;;
59569;SDS011;45393;44.646;10.900;2022-09-17T06:16:40;3.30;;;1.40;;
59569;SDS011;45393;44.646;10.900;2022-09-17T06:19:06;2.50;;;1.00;;
59569;SDS011;45393;44.646;10.900;2022-09-17T06:21:33;2.83;;;1.23;;
59569;SDS011;45393;44.646;10.900;2022-09-17T06:23:59;3.90;;;1.10;;
59569;SDS011;45393;44.646;10.900;2022-09-17T06:26:25;4.57;;;1.63;;
59569;SDS011;45393;44.646;10.900;2022-09-17T06:28:51;2.87;;;1.10;;
59569;SDS011;45393;44.646;10.900;2022-09-17T06:31:17;1.17;;;1.03;;
59569;SDS011;45393;44.646;10.900;2022-09-17T06:33:44;3.63;;;1.10;;
59569;SDS011;45393;44.646;10.900;2022-09-17T06:36:12;1.27;;;1.10;;
59569;SDS011;45393;44.646;10.900;2022-09-17T06:38:38;3.53;;;1.10;;
59569;SDS011;45393;44.646;10.900;2022-09-17T06:41:04;1.83;;;1.20;;
59569;SDS011;45393;44.646;10.900;2022-09-17T06:43:30;1.50;;;1.00;;
59569;SDS011;45393;44.646;10.900;2022-09-17T06:46:00;1.57;;;1.17;;
59569;SDS011;45393;44.646;10.900;2022-09-17T06:48:27;0.90;;;0.90;;
59569;SDS011;45393;44.646;10.900;2022-09-17T06:50:54;4.37;;;1.27;;
59569;SDS011;45393;44.646;10.900;2022-09-17T06:53:20;5.63;;;1.13;;
59569;SDS011;45393;44.646;10.900;2022-09-17T06:55:47;1.50;;;0.97;;
59569;SDS011;45393;44.646;10.900;2022-09-17T06:58:13;3.60;;;1.23;;
59569;SDS011;45393;44.646;10.900;2022-09-17T07:00:39;4.00;;;1.07;;
59569;SDS011;45393;44.646;10.900;2022-09-17T07:03:05;3.10;;;1.50;;
59569;SDS011;45393;44.646;10.900;2022-09-17T07:05:31;4.50;;;1.40;;
59569;SDS011;45393;44.646;10.900;2022-09-17T07:07:59;20.57;;;2.93;;
59569;SDS011;45393;44.646;10.900;2022-09-17T07:10:27;10.60;;;1.97;;
59569;SDS011;45393;44.646;10.900;2022-09-17T07:12:53;10.87;;;1.93;;
59569;SDS011;45393;44.646;10.900;2022-09-17T07:15:19;9.10;;;2.10;;
59569;SDS011;45393;44.646;10.900;2022-09-17T07:17:46;5.93;;;1.70;;
59569;SDS011;45393;44.646;10.900;2022-09-17T07:20:12;7.00;;;1.80;;
59569;SDS011;45393;44.646;10.900;2022-09-17T07:22:38;1.83;;;1.30;;
59569;SDS011;45393;44.646;10.900;2022-09-17T07:25:05;4.23;;;1.40;;
59569;SDS011;45393;44.646;10.900;2022-09-17T07:27:32;3.63;;;1.63;;
59569;SDS011;45393;44.646;10.900;2022-09-17T07:29:58;3.20;;;1.60;;
59569;SDS011;45393;44.646;10.900;2022-09-17T07:32:24;2.93;;;1.70;;
59569;SDS011;45393;44.646;10.900;2022-09-17T07:34:50;12.63;;;1.97;;
59569;SDS011;45393;44.646;10.900;2022-09-17T07:37:17;4.93;;;1.70;;
59569;SDS011;45393;44.646;10.900;2022-09-17T07:39:43;10.20;;;2.20;;
59569;SDS011;45393;44.646;10.900;2022-09-17T07:42:09;6.20;;;1.60;;
59569;SDS011;45393;44.646;10.900;2022-09-17T07:44:36;3.60;;;1.47;;
59569;SDS011;45393;44.646;10.900;2022-09-17T07:47:02;7.60;;;1.90;;
59569;SDS011;45393;44.646;10.900;2022-09-17T07:49:28;3.67;;;1.37;;
59569;SDS011;45393;44.646;10.900;2022-09-17T07:51:55;2.93;;;1.50;;
59569;SDS011;45393;44.646;10.900;2022-09-17T07:54:21;2.47;;;1.50;;
59569;SDS011;45393;44.646;10.900;2022-09-17T07:56:48;2.93;;;1.40;;
59569;SDS011;45393;44.646;10.900;2022-09-17T07:59:14;5.20;;;1.43;;
59569;SDS011;45393;44.646;10.900;2022-09-17T08:01:40;5.13;;;1.60;;
59569;SDS011;45393;44.646;10.900;2022-09-17T08:04:06;2.47;;;0.90;;
59569;SDS011;45393;44.646;10.900;2022-09-17T08:06:35;4.60;;;1.30;;
59569;SDS011;45393;44.646;10.900;2022-09-17T08:09:02;2.77;;;1.10;;
59569;SDS011;45393;44.646;10.900;2022-09-17T08:11:28;1.80;;;1.00;;
59569;SDS011;45393;44.646;10.900;2022-09-17T08:13:55;3.97;;;0.90;;
59569;SDS011;45393;44.646;10.900;2022-09-17T08:16:21;1.70;;;0.93;;
59569;SDS011;45393;44.646;10.900;2022-09-17T08:18:48;1.83;;;1.00;;
59569;SDS011;45393;44.646;10.900;2022-09-17T08:21:15;2.20;;;1.10;;
59569;SDS011;45393;44.646;10.900;2022-09-17T08:23:42;1.47;;;0.83;;
59569;SDS011;45393;44.646;10.900;2022-09-17T08:26:16;4.83;;;1.07;;
59569;SDS011;45393;44.646;10.900;2022-09-17T08:28:43;2.20;;;0.93;;
59569;SDS011;45393;44.646;10.900;2022-09-17T08:31:09;2.53;;;1.00;;
59569;SDS011;45393;44.646;10.900;2022-09-17T08:33:37;2.47;;;1.30;;
59569;SDS011;45393;44.646;10.900;2022-09-17T08:36:04;1.97;;;1.20;;
59569;SDS011;45393;44.646;10.900;2022-09-17T08:38:31;3.53;;;1.10;;
59569;SDS011;45393;44.646;10.900;2022-09-17T08:41:02;2.00;;;1.00;;
59569;SDS011;45393;44.646;10.900;2022-09-17T08:43:30;3.33;;;1.20;;
59569;SDS011;45393;44.646;10.900;2022-09-17T08:45:58;2.00;;;1.07;;
59569;SDS011;45393;44.646;10.900;2022-09-17T08:48:25;2.67;;;1.10;;
59569;SDS011;45393;44.646;10.900;2022-09-17T08:50:53;2.93;;;0.90;;
59569;SDS011;45393;44.646;10.900;2022-09-17T08:53:24;2.97;;;1.20;;
59569;SDS011;45393;44.646;10.900;2022-09-17T08:56:06;3.00;;;1.10;;
59569;SDS011;45393;44.646;10.900;2022-09-17T09:06:13;3.17;;;1.33;;
59569;SDS011;45393;44.646;10.900;2022-09-17T09:08:41;3.23;;;1.43;;
59569;SDS011;45393;44.646;10.900;2022-09-17T09:11:12;3.27;;;1.20;;
59569;SDS011;45393;44.646;10.900;2022-09-17T09:13:40;2.13;;;0.90;;
59569;SDS011;45393;44.646;10.900;2022-09-17T09:16:17;1.00;;;0.90;;
59569;SDS011;45393;44.646;10.900;2022-09-17T09:18:43;2.33;;;0.90;;
59569;SDS011;45393;44.646;10.900;2022-09-17T09:26:42;1.87;;;1.00;;
59569;SDS011;45393;44.646;10.900;2022-09-17T09:34:30;2.13;;;0.87;;
59569;SDS011;45393;44.646;10.900;2022-09-17T09:37:11;0.83;;;0.63;;
59569;SDS011;45393;44.646;10.900;2022-09-17T09:39:39;1.53;;;0.70;;
59569;SDS011;45393;44.646;10.900;2022-09-17T09:42:18;2.17;;;0.97;;
59569;SDS011;45393;44.646;10.900;2022-09-17T09:44:48;1.93;;;0.80;;
59569;SDS011;45393;44.646;10.900;2022-09-17T09:57:29;0.67;;;0.60;;
59569;SDS011;45393;44.646;10.900;2022-09-17T10:00:42;2.30;;;0.90;;
59569;SDS011;45393;44.646;10.900;2022-09-17T10:02:43;2.23;;;1.00;;
59569;SDS011;45393;44.646;10.900;2022-09-17T10:05:09;0.80;;;0.80;;
59569;SDS011;45393;44.646;10.900;2022-09-17T10:07:42;1.03;;;0.80;;
59569;SDS011;45393;44.646;10.900;2022-09-17T10:10:08;2.43;;;1.00;;
59569;SDS011;45393;44.646;10.900;2022-09-17T10:12:35;1.57;;;1.00;;
59569;SDS011;45393;44.646;10.900;2022-09-17T10:15:24;1.27;;;0.90;;
59569;SDS011;45393;44.646;10.900;2022-09-17T10:17:48;1.83;;;1.00;;
59569;SDS011;45393;44.646;10.900;2022-09-17T10:20:16;1.00;;;0.90;;
59569;SDS011;45393;44.646;10.900;2022-09-17T10:22:45;0.93;;;0.80;;
59569;SDS011;45393;44.646;10.900;2022-09-17T10:25:22;1.20;;;1.00;;
59569;SDS011;45393;44.646;10.900;2022-09-17T10:27:49;2.53;;;1.10;;
59569;SDS011;45393;44.646;10.900;2022-09-17T10:30:16;2.37;;;1.13;;
59569;SDS011;45393;44.646;10.900;2022-09-17T10:32:42;2.60;;;1.00;;
59569;SDS011;45393;44.646;10.900;2022-09-17T10:37:42;0.80;;;0.80;;
59569;SDS011;45393;44.646;10.900;2022-09-17T10:42:47;2.30;;;1.10;;
59569;SDS011;45393;44.646;10.900;2022-09-17T10:47:49;1.67;;;0.87;;
59569;SDS011;45393;44.646;10.900;2022-09-17T10:50:16;3.90;;;1.27;;
59569;SDS011;45393;44.646;10.900;2022-09-17T10:52:50;2.60;;;1.20;;
59569;SDS011;45393;44.646;10.900;2022-09-17T11:00:23;2.17;;;1.30;;
59569;SDS011;45393;44.646;10.900;2022-09-17T11:06:01;3.33;;;1.00;;
59569;SDS011;45393;44.646;10.900;2022-09-17T11:11:10;2.63;;;1.00;;
59569;SDS011;45393;44.646;10.900;2022-09-17T11:18:44;1.77;;;0.93;;
59569;SDS011;45393;44.646;10.900;2022-09-17T11:21:29;1.83;;;1.00;;
59569;SDS011;45393;44.646;10.900;2022-09-17T11:34:43;1.20;;;0.97;;
59569;SDS011;45393;44.646;10.900;2022-09-17T11:39:52;1.30;;;0.90;;
59569;SDS011;45393;44.646;10.900;2022-09-17T11:42:22;1.00;;;0.90;;
59569;SDS011;45393;44.646;10.900;2022-09-17T11:44:50;1.83;;;0.70;;
59569;SDS011;45393;44.646;10.900;2022-09-17T11:47:19;2.37;;;0.90;;
59569;SDS011;45393;44.646;10.900;2022-09-17T11:52:18;1.17;;;0.80;;
59569;SDS011;45393;44.646;10.900;2022-09-17T11:54:53;0.80;;;0.70;;
59569;SDS011;45393;44.646;10.900;2022-09-17T11:57:30;1.50;;;0.97;;
59569;SDS011;45393;44.646;10.900;2022-09-17T12:00:13;2.63;;;0.90;;
59569;SDS011;45393;44.646;10.900;2022-09-17T12:15:29;0.60;;;0.60;;
59569;SDS011;45393;44.646;10.900;2022-09-17T12:18:15;2.07;;;0.60;;
59569;SDS011;45393;44.646;10.900;2022-09-17T12:20:44;0.60;;;0.60;;
59569;SDS011;45393;44.646;10.900;2022-09-17T12:23:12;0.57;;;0.57;;
59569;SDS011;45393;44.646;10.900;2022-09-17T12:25:43;0.50;;;0.50;;
59569;SDS011;45393;44.646;10.900;2022-09-17T12:28:19;0.50;;;0.50;;
59569;SDS011;45393;44.646;10.900;2022-09-17T12:30:59;1.17;;;0.60;;
59569;SDS011;45393;44.646;10.900;2022-09-17T12:33:38;0.67;;;0.53;;
59569;SDS011;45393;44.646;10.900;2022-09-17T12:44:17;0.50;;;0.50;;
59569;SDS011;45393;44.646;10.900;2022-09-17T12:59:28;0.50;;;0.50;;
59569;SDS011;45393;44.646;10.900;2022-09-17T13:02:02;0.50;;;0.50;;
59569;SDS011;45393;44.646;10.900;2022-09-17T13:17:23;0.50;;;0.50;;
59569;SDS011;45393;44.646;10.900;2022-09-17T13:22:29;0.50;;;0.50;;
59569;SDS011;45393;44.646;10.900;2022-09-17T13:25:04;0.57;;;0.50;;
59569;SDS011;45393;44.646;10.900;2022-09-17T13:27:31;0.40;;;0.40;;
59569;SDS011;45393;44.646;10.900;2022-09-17T13:30:02;0.50;;;0.50;;
59569;SDS011;45393;44.646;10.900;2022-09-17T13:37:44;0.50;;;0.50;;
59569;SDS011;45393;44.646;10.900;2022-09-17T13:42:46;0.47;;;0.47;;
59569;SDS011;45393;44.646;10.900;2022-09-17T13:45:14;1.33;;;0.53;;
59569;SDS011;45393;44.646;10.900;2022-09-17T13:47:51;1.87;;;0.80;;
59569;SDS011;45393;44.646;10.900;2022-09-17T13:50:25;0.63;;;0.57;;
59569;SDS011;45393;44.646;10.900;2022-09-17T13:52:55;4.30;;;1.97;;
59569;SDS011;45393;44.646;10.900;2022-09-17T13:55:36;0.63;;;0.63;;
59569;SDS011;45393;44.646;10.900;2022-09-17T13:58:07;0.63;;;0.60;;
59569;SDS011;45393;44.646;10.900;2022-09-17T14:00:50;0.67;;;0.50;;
59569;SDS011;45393;44.646;10.900;2022-09-17T14:05:56;0.83;;;0.50;;
59569;SDS011;45393;44.646;10.900;2022-09-17T14:08:24;1.57;;;0.50;;
59569;SDS011;45393;44.646;10.900;2022-09-17T14:10:52;0.50;;;0.50;;
59569;SDS011;45393;44.646;10.900;2022-09-17T14:15:57;0.40;;;0.40;;
59569;SDS011;45393;44.646;10.900;2022-09-17T14:20:54;0.70;;;0.70;;
59569;SDS011;45393;44.646;10.900;2022-09-17T14:23:32;0.50;;;0.50;;
59569;SDS011;45393;44.646;10.900;2022-09-17T14:25:59;0.50;;;0.50;;
59569;SDS011;45393;44.646;10.900;2022-09-17T14:28:38;1.70;;;0.60;;
59569;SDS011;45393;44.646;10.900;2022-09-17T14:31:12;0.47;;;0.47;;
59569;SDS011;45393;44.646;10.900;2022-09-17T14:33:41;0.43;;;0.43;;
59569;SDS011;45393;44.646;10.900;2022-09-17T14:36:09;0.60;;;0.40;;
59569;SDS011;45393;44.646;10.900;2022-09-17T14:38:40;0.40;;;0.40;;
59569;SDS011;45393;44.646;10.900;2022-09-17T14:43:49;0.50;;;0.50;;
59569;SDS011;45393;44.646;10.900;2022-09-17T14:48:49;1.53;;;0.57;;
59569;SDS011;45393;44.646;10.900;2022-09-17T14:56:10;1.53;;;0.50;;
59569;SDS011;45393;44.646;10.900;2022-09-17T14:58:39;1.60;;;0.50;;
59569;SDS011;45393;44.646;10.900;2022-09-17T15:01:12;0.50;;;0.50;;
59569;SDS011;45393;44.646;10.900;2022-09-17T15:03:42;0.97;;;0.50;;
59569;SDS011;45393;44.646;10.900;2022-09-17T15:06:18;0.50;;;0.50;;
59569;SDS011;45393;44.646;10.900;2022-09-17T15:08:44;0.63;;;0.60;;
59569;SDS011;45393;44.646;10.900;2022-09-17T15:11:10;0.40;;;0.40;;
59569;SDS011;45393;44.646;10.900;2022-09-17T15:13:41;0.50;;;0.50;;
59569;SDS011;45393;44.646;10.900;2022-09-17T15:16:17;0.97;;;0.60;;
59569;SDS011;45393;44.646;10.900;2022-09-17T15:18:48;1.43;;;0.60;;
59569;SDS011;45393;44.646;10.900;2022-09-17T15:23:57;2.00;;;0.50;;
59569;SDS011;45393;44.646;10.900;2022-09-17T15:26:26;0.80;;;0.50;;
59569;SDS011;45393;44.646;10.900;2022-09-17T15:28:53;0.97;;;0.70;;
59569;SDS011;45393;44.646;10.900;2022-09-17T15:31:21;1.83;;;0.70;;
59569;SDS011;45393;44.646;10.900;2022-09-17T15:33:47;1.33;;;0.60;;
59569;SDS011;45393;44.646;10.900;2022-09-17T15:38:44;0.77;;;0.77;;
59569;SDS011;45393;44.646;10.900;2022-09-17T15:43:49;0.93;;;0.60;;
59569;SDS011;45393;44.646;10.900;2022-09-17T15:48:47;0.67;;;0.60;;
59569;SDS011;45393;44.646;10.900;2022-09-17T15:51:35;0.70;;;0.60;;
59569;SDS011;45393;44.646;10.900;2022-09-17T15:54:02;1.87;;;0.77;;
59569;SDS011;45393;44.646;10.900;2022-09-17T16:06:46;2.63;;;0.80;;
59569;SDS011;45393;44.646;10.900;2022-09-17T16:09:55;0.93;;;0.70;;
59569;SDS011;45393;44.646;10.900;2022-09-17T16:12:02;1.33;;;0.70;;
59569;SDS011;45393;44.646;10.900;2022-09-17T16:14:28;3.07;;;0.70;;
59569;SDS011;45393;44.646;10.900;2022-09-17T16:16:54;1.70;;;0.70;;
59569;SDS011;45393;44.646;10.900;2022-09-17T16:19:20;2.53;;;0.80;;
59569;SDS011;45393;44.646;10.900;2022-09-17T16:21:47;1.83;;;0.80;;
59569;SDS011;45393;44.646;10.900;2022-09-17T16:24:13;1.23;;;0.90;;
59569;SDS011;45393;44.646;10.900;2022-09-17T16:26:39;1.13;;;0.83;;
59569;SDS011;45393;44.646;10.900;2022-09-17T16:29:14;2.30;;;0.97;;
59569;SDS011;45393;44.646;10.900;2022-09-17T16:31:41;0.73;;;0.60;;
59569;SDS011;45393;44.646;10.900;2022-09-17T16:34:08;1.20;;;0.67;;
59569;SDS011;45393;44.646;10.900;2022-09-17T16:36:34;2.27;;;0.97;;
59569;SDS011;45393;44.646;10.900;2022-09-17T16:39:00;4.57;;;1.00;;
59569;SDS011;45393;44.646;10.900;2022-09-17T16:41:27;1.07;;;0.80;;
59569;SDS011;45393;44.646;10.900;2022-09-17T16:43:53;5.10;;;1.00;;
59569;SDS011;45393;44.646;10.900;2022-09-17T16:46:19;1.40;;;0.90;;
59569;SDS011;45393;44.646;10.900;2022-09-17T16:48:48;1.50;;;0.73;;
59569;SDS011;45393;44.646;10.900;2022-09-17T16:51:14;2.37;;;1.00;;
59569;SDS011;45393;44.646;10.900;2022-09-17T16:53:40;2.77;;;0.80;;
59569;SDS011;45393;44.646;10.900;2022-09-17T16:56:10;1.83;;;1.00;;
59569;SDS011;45393;44.646;10.900;2022-09-17T16:58:36;0.93;;;0.80;;
59569;SDS011;45393;44.646;10.900;2022-09-17T17:01:06;2.43;;;0.90;;
59569;SDS011;45393;44.646;10.900;2022-09-17T17:03:33;1.47;;;0.80;;
59569;SDS011;45393;44.646;10.900;2022-09-17T17:05:59;2.00;;;0.80;;
59569;SDS011;45393;44.646;10.900;2022-09-17T17:08:26;2.90;;;0.97;;
59569;SDS011;45393;44.646;10.900;2022-09-17T17:10:52;2.10;;;1.03;;
59569;SDS011;45393;44.646;10.900;2022-09-17T17:13:18;1.57;;;1.10;;
59569;SDS011;45393;44.646;10.900;2022-09-17T17:15:44;3.00;;;1.17;;
59569;SDS011;45393;44.646;10.900;2022-09-17T17:18:10;0.97;;;0.77;;
59569;SDS011;45393;44.646;10.900;2022-09-17T17:20:36;4.83;;;1.20;;
59569;SDS011;45393;44.646;10.900;2022-09-17T17:23:02;1.50;;;0.90;;
59569;SDS011;45393;44.646;10.900;2022-09-17T17:25:28;1.87;;;1.00;;
59569;SDS011;45393;44.646;10.900;2022-09-17T17:27:56;1.13;;;0.93;;
59569;SDS011;45393;44.646;10.900;2022-09-17T17:30:22;2.50;;;0.97;;
59569;SDS011;45393;44.646;10.900;2022-09-17T17:32:50;0.90;;;0.80;;
59569;SDS011;45393;44.646;10.900;2022-09-17T17:35:16;3.57;;;1.00;;
59569;SDS011;45393;44.646;10.900;2022-09-17T17:37:42;1.80;;;0.90;;
59569;SDS011;45393;44.646;10.900;2022-09-17T17:40:09;2.73;;;1.00;;
59569;SDS011;45393;44.646;10.900;2022-09-17T17:42:35;3.23;;;1.10;;
59569;SDS011;45393;44.646;10.900;2022-09-17T17:45:05;1.57;;;0.90;;
59569;SDS011;45393;44.646;10.900;2022-09-17T17:47:32;1.63;;;1.07;;
59569;SDS011;45393;44.646;10.900;2022-09-17T17:49:58;2.03;;;1.03;;
59569;SDS011;45393;44.646;10.900;2022-09-17T17:52:24;1.47;;;1.17;;
59569;SDS011;45393;44.646;10.900;2022-09-17T17:54:50;2.50;;;1.00;;
59569;SDS011;45393;44.646;10.900;2022-09-17T17:57:16;1.93;;;1.00;;
59569;SDS011;45393;44.646;10.900;2022-09-17T17:59:42;3.20;;;1.47;;
59569;SDS011;45393;44.646;10.900;2022-09-17T18:02:09;4.00;;;1.10;;
59569;SDS011;45393;44.646;10.900;2022-09-17T18:04:36;3.20;;;1.40;;
59569;SDS011;45393;44.646;10.900;2022-09-17T18:07:02;1.90;;;1.40;;
59569;SDS011;45393;44.646;10.900;2022-09-17T18:09:28;2.30;;;1.40;;
59569;SDS011;45393;44.646;10.900;2022-09-17T18:11:54;2.30;;;1.60;;
59569;SDS011;45393;44.646;10.900;2022-09-17T18:14:20;3.70;;;2.07;;
59569;SDS011;45393;44.646;10.900;2022-09-17T18:16:46;1.93;;;1.30;;
59569;SDS011;45393;44.646;10.900;2022-09-17T18:19:13;2.60;;;1.30;;
59569;SDS011;45393;44.646;10.900;2022-09-17T18:21:39;4.53;;;1.60;;
59569;SDS011;45393;44.646;10.900;2022-09-17T18:24:05;4.10;;;1.37;;